sensor_id;sensor_type;location;lat;lon;timestamp;P1;durP1;ratioP1;P2;durP2;ratioP2
50367;SDS011;36281;34.132;-118.018;2022-07-29T00:01:42;10.52;;;3.58;;
50367;SDS011;36281;34.132;-118.018;2022-07-29T00:04:11;7.03;;;3.40;;
50367;SDS011;36281;34.132;-118.018;2022-07-29T00:06:41;5.43;;;3.03;;
50367;SDS011;36281;34.132;-118.018;2022-07-29T00:09:10;6.40;;;3.00;;
50367;SDS011;36281;34.132;-118.018;2022-07-29T00:11:40;5.55;;;3.15;;
50367;SDS011;36281;34.132;-118.018;2022-07-29T00:14:09;5.10;;;2.92;;
50367;SDS011;36281;34.132;-118.018;2022-07-29T00:16:40;7.85;;;3.33;;
50367;SDS011;36281;34.132;-118.018;2022-07-29T00:19:09;5.68;;;3.30;;
50367;SDS011;36281;34.132;-118.018;2022-07-29T00:21:39;6.13;;;3.15;;
50367;SDS011;36281;34.132;-118.018;2022-07-29T00:24:08;7.07;;;3.47;;
50367;SDS011;36281;34.132;-118.018;2022-07-29T00:26:37;4.57;;;3.08;;
50367;SDS011;36281;34.132;-118.018;2022-07-29T00:29:06;4.45;;;2.80;;
50367;SDS011;36281;34.132;-118.018;2022-07-29T00:31:56;4.22;;;2.90;;
50367;SDS011;36281;34.132;-118.018;2022-07-29T00:34:26;5.68;;;3.17;;
50367;SDS011;36281;34.132;-118.018;2022-07-29T00:37:13;6.90;;;3.38;;
50367;SDS011;36281;34.132;-118.018;2022-07-29T00:39:42;7.20;;;3.25;;
50367;SDS011;36281;34.132;-118.018;2022-07-29T00:42:11;5.50;;;3.28;;
50367;SDS011;36281;34.132;-118.018;2022-07-29T00:44:40;6.65;;;3.35;;
50367;SDS011;36281;34.132;-118.018;2022-07-29T00:47:12;5.68;;;3.05;;
50367;SDS011;36281;34.132;-118.018;2022-07-29T00:49:41;4.43;;;2.90;;
50367;SDS011;36281;34.132;-118.018;2022-07-29T00:52:10;7.22;;;2.97;;
50367;SDS011;36281;34.132;-118.018;2022-07-29T00:54:43;4.75;;;2.92;;
50367;SDS011;36281;34.132;-118.018;2022-07-29T00:57:12;6.22;;;3.50;;
50367;SDS011;36281;34.132;-118.018;2022-07-29T00:59:41;9.95;;;3.30;;
50367;SDS011;36281;34.132;-118.018;2022-07-29T01:02:12;6.60;;;3.13;;
50367;SDS011;36281;34.132;-118.018;2022-07-29T01:04:41;5.53;;;3.20;;
50367;SDS011;36281;34.132;-118.018;2022-07-29T01:07:10;5.07;;;3.00;;
50367;SDS011;36281;34.132;-118.018;2022-07-29T01:09:39;6.13;;;3.28;;
50367;SDS011;36281;34.132;-118.018;2022-07-29T01:12:13;7.30;;;3.10;;
50367;SDS011;36281;34.132;-118.018;2022-07-29T01:14:46;6.68;;;3.45;;
50367;SDS011;36281;34.132;-118.018;2022-07-29T01:17:20;6.50;;;3.10;;
50367;SDS011;36281;34.132;-118.018;2022-07-29T01:19:56;6.53;;;3.33;;
50367;SDS011;36281;34.132;-118.018;2022-07-29T01:22:35;6.30;;;3.30;;
50367;SDS011;36281;34.132;-118.018;2022-07-29T01:25:23;7.95;;;3.22;;
50367;SDS011;36281;34.132;-118.018;2022-07-29T01:28:17;6.25;;;3.08;;
50367;SDS011;36281;34.132;-118.018;2022-07-29T01:31:13;5.57;;;3.00;;
50367;SDS011;36281;34.132;-118.018;2022-07-29T01:33:58;5.38;;;3.38;;
50367;SDS011;36281;34.132;-118.018;2022-07-29T01:36:32;5.03;;;3.00;;
50367;SDS011;36281;34.132;-118.018;2022-07-29T01:39:06;5.45;;;3.20;;
50367;SDS011;36281;34.132;-118.018;2022-07-29T01:41:40;6.10;;;3.10;;
50367;SDS011;36281;34.132;-118.018;2022-07-29T01:44:17;4.13;;;3.10;;
50367;SDS011;36281;34.132;-118.018;2022-07-29T01:46:52;7.47;;;3.58;;
50367;SDS011;36281;34.132;-118.018;2022-07-29T01:49:27;7.30;;;3.17;;
50367;SDS011;36281;34.132;-118.018;2022-07-29T01:51:59;9.48;;;3.92;;
50367;SDS011;36281;34.132;-118.018;2022-07-29T01:54:34;5.65;;;3.45;;
50367;SDS011;36281;34.132;-118.018;2022-07-29T01:57:06;7.28;;;3.10;;
50367;SDS011;36281;34.132;-118.018;2022-07-29T01:59:37;7.25;;;3.38;;
50367;SDS011;36281;34.132;-118.018;2022-07-29T02:02:10;7.05;;;3.20;;
50367;SDS011;36281;34.132;-118.018;2022-07-29T02:04:41;5.82;;;3.38;;
50367;SDS011;36281;34.132;-118.018;2022-07-29T02:07:17;5.15;;;3.10;;
50367;SDS011;36281;34.132;-118.018;2022-07-29T02:09:48;9.27;;;3.22;;
50367;SDS011;36281;34.132;-118.018;2022-07-29T02:12:18;10.27;;;3.40;;
50367;SDS011;36281;34.132;-118.018;2022-07-29T02:14:49;5.05;;;3.30;;
50367;SDS011;36281;34.132;-118.018;2022-07-29T02:17:23;7.47;;;3.33;;
50367;SDS011;36281;34.132;-118.018;2022-07-29T02:19:56;9.32;;;3.47;;
50367;SDS011;36281;34.132;-118.018;2022-07-29T02:22:28;6.40;;;3.45;;
50367;SDS011;36281;34.132;-118.018;2022-07-29T02:24:58;5.43;;;3.30;;
50367;SDS011;36281;34.132;-118.018;2022-07-29T02:27:29;5.15;;;3.05;;
50367;SDS011;36281;34.132;-118.018;2022-07-29T02:30:02;5.38;;;3.10;;
50367;SDS011;36281;34.132;-118.018;2022-07-29T02:32:34;6.40;;;3.20;;
50367;SDS011;36281;34.132;-118.018;2022-07-29T02:35:06;7.78;;;3.30;;
50367;SDS011;36281;34.132;-118.018;2022-07-29T02:37:37;6.60;;;3.10;;
50367;SDS011;36281;34.132;-118.018;2022-07-29T02:40:08;6.93;;;3.25;;
50367;SDS011;36281;34.132;-118.018;2022-07-29T02:42:39;6.68;;;3.17;;
50367;SDS011;36281;34.132;-118.018;2022-07-29T02:45:11;5.88;;;3.55;;
50367;SDS011;36281;34.132;-118.018;2022-07-29T02:47:43;5.88;;;3.38;;
50367;SDS011;36281;34.132;-118.018;2022-07-29T02:50:17;7.80;;;3.60;;
50367;SDS011;36281;34.132;-118.018;2022-07-29T02:52:52;7.18;;;3.60;;
50367;SDS011;36281;34.132;-118.018;2022-07-29T02:55:26;5.22;;;3.25;;
50367;SDS011;36281;34.132;-118.018;2022-07-29T02:57:59;5.75;;;3.30;;
50367;SDS011;36281;34.132;-118.018;2022-07-29T03:00:31;4.70;;;3.08;;
50367;SDS011;36281;34.132;-118.018;2022-07-29T03:03:07;7.32;;;4.22;;
50367;SDS011;36281;34.132;-118.018;2022-07-29T03:05:40;7.55;;;3.90;;
50367;SDS011;36281;34.132;-118.018;2022-07-29T03:08:10;5.82;;;3.10;;
50367;SDS011;36281;34.132;-118.018;2022-07-29T03:10:42;9.75;;;3.50;;
50367;SDS011;36281;34.132;-118.018;2022-07-29T03:13:13;8.43;;;3.53;;
50367;SDS011;36281;34.132;-118.018;2022-07-29T03:15:43;6.38;;;3.33;;
50367;SDS011;36281;34.132;-118.018;2022-07-29T03:18:14;6.03;;;3.35;;
50367;SDS011;36281;34.132;-118.018;2022-07-29T03:20:44;6.22;;;3.63;;
50367;SDS011;36281;34.132;-118.018;2022-07-29T03:23:14;5.97;;;3.38;;
50367;SDS011;36281;34.132;-118.018;2022-07-29T03:25:47;6.13;;;3.90;;
50367;SDS011;36281;34.132;-118.018;2022-07-29T03:28:20;3.70;;;3.00;;
50367;SDS011;36281;34.132;-118.018;2022-07-29T03:30:52;6.03;;;3.20;;
50367;SDS011;36281;34.132;-118.018;2022-07-29T03:33:24;8.38;;;3.60;;
50367;SDS011;36281;34.132;-118.018;2022-07-29T03:35:53;5.50;;;3.28;;
50367;SDS011;36281;34.132;-118.018;2022-07-29T03:38:26;11.98;;;3.83;;
50367;SDS011;36281;34.132;-118.018;2022-07-29T03:40:58;6.30;;;3.42;;
50367;SDS011;36281;34.132;-118.018;2022-07-29T03:43:34;5.60;;;3.43;;
50367;SDS011;36281;34.132;-118.018;2022-07-29T03:46:15;5.68;;;3.42;;
50367;SDS011;36281;34.132;-118.018;2022-07-29T03:48:48;6.10;;;3.33;;
50367;SDS011;36281;34.132;-118.018;2022-07-29T03:51:20;8.00;;;3.37;;
50367;SDS011;36281;34.132;-118.018;2022-07-29T03:54:00;7.63;;;3.78;;
50367;SDS011;36281;34.132;-118.018;2022-07-29T03:56:37;5.25;;;3.40;;
50367;SDS011;36281;34.132;-118.018;2022-07-29T03:59:08;5.50;;;3.30;;
50367;SDS011;36281;34.132;-118.018;2022-07-29T04:01:39;8.18;;;3.60;;
50367;SDS011;36281;34.132;-118.018;2022-07-29T04:04:11;8.00;;;3.60;;
50367;SDS011;36281;34.132;-118.018;2022-07-29T04:06:40;5.07;;;3.45;;
50367;SDS011;36281;34.132;-118.018;2022-07-29T04:09:14;9.15;;;3.30;;
50367;SDS011;36281;34.132;-118.018;2022-07-29T04:11:43;6.68;;;3.70;;
50367;SDS011;36281;34.132;-118.018;2022-07-29T04:14:30;5.30;;;3.60;;
50367;SDS011;36281;34.132;-118.018;2022-07-29T04:17:00;5.93;;;3.50;;
50367;SDS011;36281;34.132;-118.018;2022-07-29T04:19:31;5.15;;;3.60;;
50367;SDS011;36281;34.132;-118.018;2022-07-29T04:22:00;6.47;;;3.67;;
50367;SDS011;36281;34.132;-118.018;2022-07-29T04:24:30;5.75;;;3.45;;
50367;SDS011;36281;34.132;-118.018;2022-07-29T04:26:59;6.43;;;3.50;;
50367;SDS011;36281;34.132;-118.018;2022-07-29T04:29:28;6.22;;;3.80;;
50367;SDS011;36281;34.132;-118.018;2022-07-29T04:31:57;8.30;;;3.85;;
50367;SDS011;36281;34.132;-118.018;2022-07-29T04:34:26;6.60;;;3.63;;
50367;SDS011;36281;34.132;-118.018;2022-07-29T04:36:57;6.78;;;3.60;;
50367;SDS011;36281;34.132;-118.018;2022-07-29T04:39:26;7.28;;;3.60;;
50367;SDS011;36281;34.132;-118.018;2022-07-29T04:41:56;7.88;;;3.60;;
50367;SDS011;36281;34.132;-118.018;2022-07-29T04:44:25;11.60;;;4.00;;
50367;SDS011;36281;34.132;-118.018;2022-07-29T04:46:55;6.75;;;3.80;;
50367;SDS011;36281;34.132;-118.018;2022-07-29T04:49:25;5.88;;;3.80;;
50367;SDS011;36281;34.132;-118.018;2022-07-29T04:51:54;7.03;;;3.60;;
50367;SDS011;36281;34.132;-118.018;2022-07-29T04:54:24;6.97;;;3.70;;
50367;SDS011;36281;34.132;-118.018;2022-07-29T04:56:54;7.57;;;4.10;;
50367;SDS011;36281;34.132;-118.018;2022-07-29T04:59:23;5.28;;;3.70;;
50367;SDS011;36281;34.132;-118.018;2022-07-29T05:01:54;7.50;;;4.30;;
50367;SDS011;36281;34.132;-118.018;2022-07-29T05:04:23;5.30;;;3.88;;
50367;SDS011;36281;34.132;-118.018;2022-07-29T05:06:52;10.93;;;4.30;;
50367;SDS011;36281;34.132;-118.018;2022-07-29T05:09:21;5.68;;;3.80;;
50367;SDS011;36281;34.132;-118.018;2022-07-29T05:11:52;7.28;;;4.05;;
50367;SDS011;36281;34.132;-118.018;2022-07-29T05:14:21;7.30;;;4.10;;
50367;SDS011;36281;34.132;-118.018;2022-07-29T05:16:50;7.03;;;4.07;;
50367;SDS011;36281;34.132;-118.018;2022-07-29T05:19:19;7.95;;;4.20;;
50367;SDS011;36281;34.132;-118.018;2022-07-29T05:21:48;7.15;;;3.85;;
50367;SDS011;36281;34.132;-118.018;2022-07-29T05:24:17;7.00;;;3.95;;
50367;SDS011;36281;34.132;-118.018;2022-07-29T05:26:46;7.68;;;4.20;;
50367;SDS011;36281;34.132;-118.018;2022-07-29T05:29:17;6.32;;;4.28;;
50367;SDS011;36281;34.132;-118.018;2022-07-29T05:32:06;9.73;;;4.50;;
50367;SDS011;36281;34.132;-118.018;2022-07-29T05:34:36;7.53;;;4.57;;
50367;SDS011;36281;34.132;-118.018;2022-07-29T05:37:17;7.50;;;4.88;;
50367;SDS011;36281;34.132;-118.018;2022-07-29T05:39:47;6.28;;;4.50;;
50367;SDS011;36281;34.132;-118.018;2022-07-29T05:44:53;9.50;;;4.82;;
50367;SDS011;36281;34.132;-118.018;2022-07-29T05:47:22;7.25;;;4.53;;
50367;SDS011;36281;34.132;-118.018;2022-07-29T05:49:52;6.50;;;4.30;;
50367;SDS011;36281;34.132;-118.018;2022-07-29T05:52:21;6.97;;;4.25;;
50367;SDS011;36281;34.132;-118.018;2022-07-29T05:54:50;6.75;;;4.13;;
50367;SDS011;36281;34.132;-118.018;2022-07-29T05:57:20;6.70;;;3.92;;
50367;SDS011;36281;34.132;-118.018;2022-07-29T05:59:50;6.90;;;4.53;;
50367;SDS011;36281;34.132;-118.018;2022-07-29T06:02:21;8.25;;;4.72;;
50367;SDS011;36281;34.132;-118.018;2022-07-29T06:04:50;7.07;;;4.13;;
50367;SDS011;36281;34.132;-118.018;2022-07-29T06:07:20;8.48;;;4.30;;
50367;SDS011;36281;34.132;-118.018;2022-07-29T06:09:49;8.63;;;4.60;;
50367;SDS011;36281;34.132;-118.018;2022-07-29T06:12:18;8.02;;;4.57;;
50367;SDS011;36281;34.132;-118.018;2022-07-29T06:14:47;8.30;;;5.00;;
50367;SDS011;36281;34.132;-118.018;2022-07-29T06:17:21;8.10;;;4.50;;
50367;SDS011;36281;34.132;-118.018;2022-07-29T06:19:50;10.18;;;5.07;;
50367;SDS011;36281;34.132;-118.018;2022-07-29T06:22:19;7.78;;;4.95;;
50367;SDS011;36281;34.132;-118.018;2022-07-29T06:24:48;8.98;;;4.95;;
50367;SDS011;36281;34.132;-118.018;2022-07-29T06:27:17;11.38;;;5.20;;
50367;SDS011;36281;34.132;-118.018;2022-07-29T06:29:46;8.10;;;4.90;;
50367;SDS011;36281;34.132;-118.018;2022-07-29T06:32:18;9.38;;;5.25;;
50367;SDS011;36281;34.132;-118.018;2022-07-29T06:34:53;9.93;;;4.70;;
50367;SDS011;36281;34.132;-118.018;2022-07-29T06:37:42;7.18;;;4.68;;
50367;SDS011;36281;34.132;-118.018;2022-07-29T06:40:14;7.57;;;4.65;;
50367;SDS011;36281;34.132;-118.018;2022-07-29T06:43:02;9.27;;;4.72;;
50367;SDS011;36281;34.132;-118.018;2022-07-29T06:45:33;11.80;;;5.28;;
50367;SDS011;36281;34.132;-118.018;2022-07-29T06:48:04;7.47;;;4.80;;
50367;SDS011;36281;34.132;-118.018;2022-07-29T06:50:34;8.70;;;4.50;;
50367;SDS011;36281;34.132;-118.018;2022-07-29T06:53:03;8.35;;;4.43;;
50367;SDS011;36281;34.132;-118.018;2022-07-29T06:55:32;7.10;;;4.43;;
50367;SDS011;36281;34.132;-118.018;2022-07-29T06:58:01;7.65;;;4.78;;
50367;SDS011;36281;34.132;-118.018;2022-07-29T07:00:30;10.00;;;4.80;;
50367;SDS011;36281;34.132;-118.018;2022-07-29T07:02:59;7.90;;;5.03;;
50367;SDS011;36281;34.132;-118.018;2022-07-29T07:05:30;8.15;;;5.15;;
50367;SDS011;36281;34.132;-118.018;2022-07-29T07:07:59;9.15;;;5.28;;
50367;SDS011;36281;34.132;-118.018;2022-07-29T07:10:28;8.30;;;5.32;;
50367;SDS011;36281;34.132;-118.018;2022-07-29T07:12:57;11.68;;;5.28;;
50367;SDS011;36281;34.132;-118.018;2022-07-29T07:15:26;8.50;;;5.45;;
50367;SDS011;36281;34.132;-118.018;2022-07-29T07:18:05;9.75;;;5.50;;
50367;SDS011;36281;34.132;-118.018;2022-07-29T07:20:36;8.68;;;5.45;;
50367;SDS011;36281;34.132;-118.018;2022-07-29T07:23:05;8.38;;;5.13;;
50367;SDS011;36281;34.132;-118.018;2022-07-29T07:25:35;8.10;;;5.40;;
50367;SDS011;36281;34.132;-118.018;2022-07-29T07:28:04;9.38;;;5.68;;
50367;SDS011;36281;34.132;-118.018;2022-07-29T07:30:33;9.43;;;5.75;;
50367;SDS011;36281;34.132;-118.018;2022-07-29T07:33:02;9.10;;;5.65;;
50367;SDS011;36281;34.132;-118.018;2022-07-29T07:35:32;8.38;;;5.55;;
50367;SDS011;36281;34.132;-118.018;2022-07-29T07:38:03;8.70;;;5.28;;
50367;SDS011;36281;34.132;-118.018;2022-07-29T07:40:33;7.90;;;5.45;;
50367;SDS011;36281;34.132;-118.018;2022-07-29T07:43:03;8.45;;;5.47;;
50367;SDS011;36281;34.132;-118.018;2022-07-29T07:45:32;10.57;;;5.40;;
50367;SDS011;36281;34.132;-118.018;2022-07-29T07:48:01;10.70;;;5.80;;
50367;SDS011;36281;34.132;-118.018;2022-07-29T07:50:30;8.15;;;5.15;;
50367;SDS011;36281;34.132;-118.018;2022-07-29T07:52:59;9.68;;;5.70;;
50367;SDS011;36281;34.132;-118.018;2022-07-29T07:55:31;8.15;;;5.07;;
50367;SDS011;36281;34.132;-118.018;2022-07-29T07:58:20;8.63;;;5.93;;
50367;SDS011;36281;34.132;-118.018;2022-07-29T08:00:49;6.75;;;5.57;;
50367;SDS011;36281;34.132;-118.018;2022-07-29T08:03:18;7.65;;;5.80;;
50367;SDS011;36281;34.132;-118.018;2022-07-29T08:05:47;8.60;;;6.03;;
50367;SDS011;36281;34.132;-118.018;2022-07-29T08:08:19;10.52;;;6.18;;
50367;SDS011;36281;34.132;-118.018;2022-07-29T08:10:50;10.10;;;5.65;;
50367;SDS011;36281;34.132;-118.018;2022-07-29T08:13:25;8.45;;;5.28;;
50367;SDS011;36281;34.132;-118.018;2022-07-29T08:15:58;8.50;;;5.43;;
50367;SDS011;36281;34.132;-118.018;2022-07-29T08:18:41;6.85;;;5.07;;
50367;SDS011;36281;34.132;-118.018;2022-07-29T08:21:11;9.65;;;5.65;;
50367;SDS011;36281;34.132;-118.018;2022-07-29T08:23:41;8.63;;;5.25;;
50367;SDS011;36281;34.132;-118.018;2022-07-29T08:26:28;9.88;;;5.60;;
50367;SDS011;36281;34.132;-118.018;2022-07-29T08:28:57;6.57;;;5.10;;
50367;SDS011;36281;34.132;-118.018;2022-07-29T08:31:26;7.53;;;5.13;;
50367;SDS011;36281;34.132;-118.018;2022-07-29T08:33:55;8.52;;;5.00;;
50367;SDS011;36281;34.132;-118.018;2022-07-29T08:36:27;6.40;;;4.57;;
50367;SDS011;36281;34.132;-118.018;2022-07-29T08:38:56;8.10;;;5.18;;
50367;SDS011;36281;34.132;-118.018;2022-07-29T08:41:25;7.53;;;5.25;;
50367;SDS011;36281;34.132;-118.018;2022-07-29T08:43:56;6.38;;;4.60;;
50367;SDS011;36281;34.132;-118.018;2022-07-29T08:46:25;9.15;;;4.30;;
50367;SDS011;36281;34.132;-118.018;2022-07-29T08:48:54;7.60;;;4.95;;
50367;SDS011;36281;34.132;-118.018;2022-07-29T08:51:24;10.95;;;4.68;;
50367;SDS011;36281;34.132;-118.018;2022-07-29T08:53:55;7.32;;;4.68;;
50367;SDS011;36281;34.132;-118.018;2022-07-29T08:56:25;6.55;;;4.38;;
50367;SDS011;36281;34.132;-118.018;2022-07-29T08:58:56;7.47;;;4.15;;
50367;SDS011;36281;34.132;-118.018;2022-07-29T09:01:31;7.68;;;4.18;;
50367;SDS011;36281;34.132;-118.018;2022-07-29T09:04:10;6.70;;;4.28;;
50367;SDS011;36281;34.132;-118.018;2022-07-29T09:06:43;5.57;;;3.90;;
50367;SDS011;36281;34.132;-118.018;2022-07-29T09:09:14;6.00;;;4.00;;
50367;SDS011;36281;34.132;-118.018;2022-07-29T09:11:43;8.60;;;4.20;;
50367;SDS011;36281;34.132;-118.018;2022-07-29T09:14:14;8.48;;;5.05;;
50367;SDS011;36281;34.132;-118.018;2022-07-29T09:16:47;5.55;;;4.00;;
50367;SDS011;36281;34.132;-118.018;2022-07-29T09:19:27;7.72;;;3.95;;
50367;SDS011;36281;34.132;-118.018;2022-07-29T09:21:58;5.40;;;3.90;;
50367;SDS011;36281;34.132;-118.018;2022-07-29T09:24:39;5.93;;;3.97;;
50367;SDS011;36281;34.132;-118.018;2022-07-29T09:27:10;5.43;;;4.15;;
50367;SDS011;36281;34.132;-118.018;2022-07-29T09:30:00;5.60;;;4.22;;
50367;SDS011;36281;34.132;-118.018;2022-07-29T09:32:31;6.80;;;3.90;;
50367;SDS011;36281;34.132;-118.018;2022-07-29T09:35:13;7.32;;;4.00;;
50367;SDS011;36281;34.132;-118.018;2022-07-29T09:37:46;4.40;;;3.90;;
50367;SDS011;36281;34.132;-118.018;2022-07-29T09:40:16;6.93;;;3.70;;
50367;SDS011;36281;34.132;-118.018;2022-07-29T09:42:47;5.88;;;4.05;;
50367;SDS011;36281;34.132;-118.018;2022-07-29T09:45:27;8.38;;;3.83;;
50367;SDS011;36281;34.132;-118.018;2022-07-29T09:47:57;6.20;;;4.20;;
50367;SDS011;36281;34.132;-118.018;2022-07-29T09:50:37;6.40;;;4.10;;
50367;SDS011;36281;34.132;-118.018;2022-07-29T09:53:07;6.15;;;3.75;;
50367;SDS011;36281;34.132;-118.018;2022-07-29T09:55:47;7.28;;;3.97;;
50367;SDS011;36281;34.132;-118.018;2022-07-29T09:58:18;8.40;;;4.32;;
50367;SDS011;36281;34.132;-118.018;2022-07-29T10:00:49;8.10;;;3.92;;
50367;SDS011;36281;34.132;-118.018;2022-07-29T10:03:20;6.43;;;4.28;;
50367;SDS011;36281;34.132;-118.018;2022-07-29T10:06:03;5.45;;;3.58;;
50367;SDS011;36281;34.132;-118.018;2022-07-29T10:08:33;6.32;;;4.25;;
50367;SDS011;36281;34.132;-118.018;2022-07-29T10:11:09;5.32;;;4.05;;
50367;SDS011;36281;34.132;-118.018;2022-07-29T10:13:40;5.32;;;3.95;;
50367;SDS011;36281;34.132;-118.018;2022-07-29T10:16:11;6.22;;;4.20;;
50367;SDS011;36281;34.132;-118.018;2022-07-29T10:18:41;6.05;;;4.15;;
50367;SDS011;36281;34.132;-118.018;2022-07-29T10:21:11;5.63;;;4.18;;
50367;SDS011;36281;34.132;-118.018;2022-07-29T10:24:01;5.22;;;3.90;;
50367;SDS011;36281;34.132;-118.018;2022-07-29T10:26:30;6.68;;;4.35;;
50367;SDS011;36281;34.132;-118.018;2022-07-29T10:29:01;7.85;;;4.20;;
50367;SDS011;36281;34.132;-118.018;2022-07-29T10:31:34;8.35;;;4.45;;
50367;SDS011;36281;34.132;-118.018;2022-07-29T10:34:13;7.13;;;4.38;;
50367;SDS011;36281;34.132;-118.018;2022-07-29T10:36:53;8.93;;;4.57;;
50367;SDS011;36281;34.132;-118.018;2022-07-29T10:39:32;6.78;;;4.18;;
50367;SDS011;36281;34.132;-118.018;2022-07-29T10:42:17;5.55;;;4.20;;
50367;SDS011;36281;34.132;-118.018;2022-07-29T10:45:00;6.47;;;4.30;;
50367;SDS011;36281;34.132;-118.018;2022-07-29T10:47:33;5.43;;;4.20;;
50367;SDS011;36281;34.132;-118.018;2022-07-29T10:50:03;7.50;;;4.63;;
50367;SDS011;36281;34.132;-118.018;2022-07-29T10:52:52;5.88;;;4.13;;
50367;SDS011;36281;34.132;-118.018;2022-07-29T10:55:31;6.00;;;4.15;;
50367;SDS011;36281;34.132;-118.018;2022-07-29T10:58:11;8.05;;;5.00;;
50367;SDS011;36281;34.132;-118.018;2022-07-29T11:00:44;6.22;;;4.93;;
50367;SDS011;36281;34.132;-118.018;2022-07-29T11:06:19;6.30;;;4.70;;
50367;SDS011;36281;34.132;-118.018;2022-07-29T11:12:03;8.32;;;5.13;;
50367;SDS011;36281;34.132;-118.018;2022-07-29T11:14:56;8.18;;;5.30;;
50367;SDS011;36281;34.132;-118.018;2022-07-29T11:17:27;7.72;;;4.85;;
50367;SDS011;36281;34.132;-118.018;2022-07-29T11:20:37;7.53;;;4.82;;
50367;SDS011;36281;34.132;-118.018;2022-07-29T11:23:20;6.30;;;4.70;;
50367;SDS011;36281;34.132;-118.018;2022-07-29T11:28:49;8.45;;;4.82;;
50367;SDS011;36281;34.132;-118.018;2022-07-29T11:31:35;10.07;;;5.30;;
50367;SDS011;36281;34.132;-118.018;2022-07-29T11:34:20;8.57;;;4.65;;
50367;SDS011;36281;34.132;-118.018;2022-07-29T11:37:16;9.77;;;4.97;;
50367;SDS011;36281;34.132;-118.018;2022-07-29T11:40:10;7.65;;;5.15;;
50367;SDS011;36281;34.132;-118.018;2022-07-29T11:42:44;7.60;;;5.40;;
50367;SDS011;36281;34.132;-118.018;2022-07-29T11:45:24;7.80;;;5.57;;
50367;SDS011;36281;34.132;-118.018;2022-07-29T11:48:19;10.95;;;5.30;;
50367;SDS011;36281;34.132;-118.018;2022-07-29T11:50:56;7.75;;;4.78;;
50367;SDS011;36281;34.132;-118.018;2022-07-29T11:53:27;8.00;;;4.68;;
50367;SDS011;36281;34.132;-118.018;2022-07-29T11:55:59;7.75;;;5.00;;
50367;SDS011;36281;34.132;-118.018;2022-07-29T11:58:29;6.53;;;4.85;;
50367;SDS011;36281;34.132;-118.018;2022-07-29T12:00:59;5.72;;;4.85;;
50367;SDS011;36281;34.132;-118.018;2022-07-29T12:03:31;8.68;;;4.95;;
50367;SDS011;36281;34.132;-118.018;2022-07-29T12:06:03;7.47;;;4.88;;
50367;SDS011;36281;34.132;-118.018;2022-07-29T12:08:44;11.00;;;5.45;;
50367;SDS011;36281;34.132;-118.018;2022-07-29T12:11:17;8.15;;;5.10;;
50367;SDS011;36281;34.132;-118.018;2022-07-29T12:13:49;8.90;;;5.22;;
50367;SDS011;36281;34.132;-118.018;2022-07-29T12:16:19;8.95;;;5.45;;
50367;SDS011;36281;34.132;-118.018;2022-07-29T12:18:56;9.80;;;5.38;;
50367;SDS011;36281;34.132;-118.018;2022-07-29T12:21:26;6.32;;;5.18;;
50367;SDS011;36281;34.132;-118.018;2022-07-29T12:23:57;7.28;;;5.45;;
50367;SDS011;36281;34.132;-118.018;2022-07-29T12:26:35;7.43;;;5.10;;
50367;SDS011;36281;34.132;-118.018;2022-07-29T12:29:06;8.32;;;4.90;;
50367;SDS011;36281;34.132;-118.018;2022-07-29T12:32:01;7.68;;;5.47;;
50367;SDS011;36281;34.132;-118.018;2022-07-29T12:34:40;7.38;;;5.35;;
50367;SDS011;36281;34.132;-118.018;2022-07-29T12:37:10;7.95;;;5.15;;
50367;SDS011;36281;34.132;-118.018;2022-07-29T12:39:41;9.77;;;5.28;;
50367;SDS011;36281;34.132;-118.018;2022-07-29T12:42:11;8.60;;;5.53;;
50367;SDS011;36281;34.132;-118.018;2022-07-29T12:44:45;6.97;;;4.88;;
50367;SDS011;36281;34.132;-118.018;2022-07-29T12:47:15;7.82;;;5.70;;
50367;SDS011;36281;34.132;-118.018;2022-07-29T12:49:45;8.30;;;5.53;;
50367;SDS011;36281;34.132;-118.018;2022-07-29T12:52:24;9.50;;;5.20;;
50367;SDS011;36281;34.132;-118.018;2022-07-29T12:54:55;8.90;;;5.50;;
50367;SDS011;36281;34.132;-118.018;2022-07-29T12:57:25;8.95;;;5.40;;
50367;SDS011;36281;34.132;-118.018;2022-07-29T13:00:04;6.43;;;5.18;;
50367;SDS011;36281;34.132;-118.018;2022-07-29T13:02:39;8.70;;;6.10;;
50367;SDS011;36281;34.132;-118.018;2022-07-29T13:05:09;10.82;;;5.85;;
50367;SDS011;36281;34.132;-118.018;2022-07-29T13:07:40;7.68;;;5.38;;
50367;SDS011;36281;34.132;-118.018;2022-07-29T13:10:24;8.07;;;5.47;;
50367;SDS011;36281;34.132;-118.018;2022-07-29T13:13:06;7.70;;;6.03;;
50367;SDS011;36281;34.132;-118.018;2022-07-29T13:15:38;10.63;;;6.20;;
50367;SDS011;36281;34.132;-118.018;2022-07-29T13:20:55;8.70;;;5.68;;
50367;SDS011;36281;34.132;-118.018;2022-07-29T13:23:24;6.60;;;5.47;;
50367;SDS011;36281;34.132;-118.018;2022-07-29T13:25:55;9.90;;;5.90;;
50367;SDS011;36281;34.132;-118.018;2022-07-29T13:28:34;6.93;;;5.68;;
50367;SDS011;36281;34.132;-118.018;2022-07-29T13:31:04;8.90;;;5.82;;
50367;SDS011;36281;34.132;-118.018;2022-07-29T13:33:33;11.75;;;6.30;;
50367;SDS011;36281;34.132;-118.018;2022-07-29T13:36:02;12.50;;;6.22;;
50367;SDS011;36281;34.132;-118.018;2022-07-29T13:38:31;12.40;;;5.80;;
50367;SDS011;36281;34.132;-118.018;2022-07-29T13:41:03;10.18;;;5.95;;
50367;SDS011;36281;34.132;-118.018;2022-07-29T13:43:32;8.20;;;5.78;;
50367;SDS011;36281;34.132;-118.018;2022-07-29T13:46:01;11.18;;;7.13;;
50367;SDS011;36281;34.132;-118.018;2022-07-29T13:48:30;9.60;;;6.80;;
50367;SDS011;36281;34.132;-118.018;2022-07-29T13:50:59;10.23;;;6.80;;
50367;SDS011;36281;34.132;-118.018;2022-07-29T13:53:28;10.15;;;7.28;;
50367;SDS011;36281;34.132;-118.018;2022-07-29T13:55:57;16.13;;;8.07;;
50367;SDS011;36281;34.132;-118.018;2022-07-29T13:58:28;10.75;;;7.93;;
50367;SDS011;36281;34.132;-118.018;2022-07-29T14:00:57;12.60;;;7.97;;
50367;SDS011;36281;34.132;-118.018;2022-07-29T14:03:26;9.52;;;7.30;;
50367;SDS011;36281;34.132;-118.018;2022-07-29T14:05:55;10.27;;;6.78;;
50367;SDS011;36281;34.132;-118.018;2022-07-29T14:08:27;13.27;;;7.70;;
50367;SDS011;36281;34.132;-118.018;2022-07-29T14:10:56;11.70;;;7.78;;
50367;SDS011;36281;34.132;-118.018;2022-07-29T14:13:25;12.20;;;7.80;;
50367;SDS011;36281;34.132;-118.018;2022-07-29T14:15:56;12.27;;;7.38;;
50367;SDS011;36281;34.132;-118.018;2022-07-29T14:18:25;11.75;;;7.40;;
50367;SDS011;36281;34.132;-118.018;2022-07-29T14:20:54;14.32;;;8.18;;
50367;SDS011;36281;34.132;-118.018;2022-07-29T14:23:23;12.95;;;8.20;;
50367;SDS011;36281;34.132;-118.018;2022-07-29T14:25:52;14.70;;;7.93;;
50367;SDS011;36281;34.132;-118.018;2022-07-29T14:28:21;10.65;;;7.80;;
50367;SDS011;36281;34.132;-118.018;2022-07-29T14:30:50;11.43;;;8.23;;
50367;SDS011;36281;34.132;-118.018;2022-07-29T14:33:21;10.15;;;8.25;;
50367;SDS011;36281;34.132;-118.018;2022-07-29T14:35:50;11.35;;;8.13;;
50367;SDS011;36281;34.132;-118.018;2022-07-29T14:38:19;13.95;;;8.02;;
50367;SDS011;36281;34.132;-118.018;2022-07-29T14:40:52;13.85;;;8.40;;
50367;SDS011;36281;34.132;-118.018;2022-07-29T14:43:21;12.23;;;8.80;;
50367;SDS011;36281;34.132;-118.018;2022-07-29T14:45:50;13.48;;;9.27;;
50367;SDS011;36281;34.132;-118.018;2022-07-29T14:48:28;9.73;;;7.80;;
50367;SDS011;36281;34.132;-118.018;2022-07-29T14:50:57;10.45;;;7.88;;
50367;SDS011;36281;34.132;-118.018;2022-07-29T14:53:30;14.70;;;8.18;;